sensor_id;sensor_type;location;lat;lon;timestamp;temperature;humidity
53962;DHT22;39868;53.398;6.564;2023-11-21T00:00:37;13.10;91.70
53962;DHT22;39868;53.398;6.564;2023-11-21T00:03:04;13.10;91.60
53962;DHT22;39868;53.398;6.564;2023-11-21T00:05:32;13.10;91.60
53962;DHT22;39868;53.398;6.564;2023-11-21T00:07:59;13.10;91.70
53962;DHT22;39868;53.398;6.564;2023-11-21T00:10:26;13.10;91.70
53962;DHT22;39868;53.398;6.564;2023-11-21T00:12:55;13.10;91.70
53962;DHT22;39868;53.398;6.564;2023-11-21T00:15:23;13.10;91.90
53962;DHT22;39868;53.398;6.564;2023-11-21T00:17:50;13.10;91.70
53962;DHT22;39868;53.398;6.564;2023-11-21T00:20:17;13.10;91.70
53962;DHT22;39868;53.398;6.564;2023-11-21T00:22:44;13.10;91.70
53962;DHT22;39868;53.398;6.564;2023-11-21T00:25:11;13.10;91.70
53962;DHT22;39868;53.398;6.564;2023-11-21T00:27:39;13.10;91.70
53962;DHT22;39868;53.398;6.564;2023-11-21T00:30:07;13.20;91.70
53962;DHT22;39868;53.398;6.564;2023-11-21T00:32:35;13.20;91.70
53962;DHT22;39868;53.398;6.564;2023-11-21T00:35:03;13.10;91.70
53962;DHT22;39868;53.398;6.564;2023-11-21T00:37:30;13.10;91.70
53962;DHT22;39868;53.398;6.564;2023-11-21T00:39:59;13.20;91.70
53962;DHT22;39868;53.398;6.564;2023-11-21T00:42:27;13.20;91.70
53962;DHT22;39868;53.398;6.564;2023-11-21T00:44:54;13.10;91.70
53962;DHT22;39868;53.398;6.564;2023-11-21T00:47:21;13.20;91.70
53962;DHT22;39868;53.398;6.564;2023-11-21T00:49:49;13.20;91.70
53962;DHT22;39868;53.398;6.564;2023-11-21T00:52:17;13.20;91.70
53962;DHT22;39868;53.398;6.564;2023-11-21T00:54:44;13.20;91.70
53962;DHT22;39868;53.398;6.564;2023-11-21T00:57:11;13.20;91.70
53962;DHT22;39868;53.398;6.564;2023-11-21T00:59:38;13.20;91.70
53962;DHT22;39868;53.398;6.564;2023-11-21T01:02:06;13.20;91.70
53962;DHT22;39868;53.398;6.564;2023-11-21T01:04:37;13.20;91.70
53962;DHT22;39868;53.398;6.564;2023-11-21T01:07:04;13.20;91.70
53962;DHT22;39868;53.398;6.564;2023-11-21T01:09:32;13.20;91.70
53962;DHT22;39868;53.398;6.564;2023-11-21T01:11:59;13.30;91.70
53962;DHT22;39868;53.398;6.564;2023-11-21T01:14:27;13.30;91.70
53962;DHT22;39868;53.398;6.564;2023-11-21T01:16:54;13.30;91.70
53962;DHT22;39868;53.398;6.564;2023-11-21T01:19:21;13.30;91.70
53962;DHT22;39868;53.398;6.564;2023-11-21T01:21:49;13.30;91.70
53962;DHT22;39868;53.398;6.564;2023-11-21T01:24:16;13.30;91.70
53962;DHT22;39868;53.398;6.564;2023-11-21T01:26:43;13.30;91.70
53962;DHT22;39868;53.398;6.564;2023-11-21T01:29:12;13.30;91.70
53962;DHT22;39868;53.398;6.564;2023-11-21T01:31:39;13.30;91.70
53962;DHT22;39868;53.398;6.564;2023-11-21T01:34:07;13.40;91.70
53962;DHT22;39868;53.398;6.564;2023-11-21T01:36:34;13.40;91.70
53962;DHT22;39868;53.398;6.564;2023-11-21T01:39:02;13.40;91.70
53962;DHT22;39868;53.398;6.564;2023-11-21T01:41:34;13.40;91.80
53962;DHT22;39868;53.398;6.564;2023-11-21T01:44:02;13.40;91.70
53962;DHT22;39868;53.398;6.564;2023-11-21T01:46:30;13.40;91.70
53962;DHT22;39868;53.398;6.564;2023-11-21T01:48:58;13.40;91.70
53962;DHT22;39868;53.398;6.564;2023-11-21T01:51:25;13.40;91.70
53962;DHT22;39868;53.398;6.564;2023-11-21T01:53:54;13.40;91.70
53962;DHT22;39868;53.398;6.564;2023-11-21T01:56:22;13.40;91.70
53962;DHT22;39868;53.398;6.564;2023-11-21T01:58:49;13.40;91.70
53962;DHT22;39868;53.398;6.564;2023-11-21T02:01:17;13.40;91.70
53962;DHT22;39868;53.398;6.564;2023-11-21T02:03:46;13.40;91.70
53962;DHT22;39868;53.398;6.564;2023-11-21T02:06:14;13.40;91.70
53962;DHT22;39868;53.398;6.564;2023-11-21T02:08:41;13.40;91.70
53962;DHT22;39868;53.398;6.564;2023-11-21T02:11:11;13.40;91.70
53962;DHT22;39868;53.398;6.564;2023-11-21T02:13:41;13.40;91.70
53962;DHT22;39868;53.398;6.564;2023-11-21T02:16:12;13.40;91.70
53962;DHT22;39868;53.398;6.564;2023-11-21T02:18:40;13.40;91.70
53962;DHT22;39868;53.398;6.564;2023-11-21T02:21:09;13.40;91.70
53962;DHT22;39868;53.398;6.564;2023-11-21T02:23:37;13.40;91.70
53962;DHT22;39868;53.398;6.564;2023-11-21T02:26:05;13.40;91.70
53962;DHT22;39868;53.398;6.564;2023-11-21T02:28:32;13.40;91.70
53962;DHT22;39868;53.398;6.564;2023-11-21T02:31:00;13.40;91.70
53962;DHT22;39868;53.398;6.564;2023-11-21T02:33:29;13.30;91.70
53962;DHT22;39868;53.398;6.564;2023-11-21T02:35:56;13.40;91.70
53962;DHT22;39868;53.398;6.564;2023-11-21T02:38:24;13.30;91.70
53962;DHT22;39868;53.398;6.564;2023-11-21T02:40:51;13.40;91.70
53962;DHT22;39868;53.398;6.564;2023-11-21T02:43:21;13.40;91.70
53962;DHT22;39868;53.398;6.564;2023-11-21T02:45:48;13.30;91.70
53962;DHT22;39868;53.398;6.564;2023-11-21T02:48:15;13.40;91.70
53962;DHT22;39868;53.398;6.564;2023-11-21T02:50:42;13.40;91.70
53962;DHT22;39868;53.398;6.564;2023-11-21T02:53:10;13.30;91.70
53962;DHT22;39868;53.398;6.564;2023-11-21T02:55:37;13.40;91.70
53962;DHT22;39868;53.398;6.564;2023-11-21T02:58:04;13.30;91.70
53962;DHT22;39868;53.398;6.564;2023-11-21T03:00:33;13.40;91.70
53962;DHT22;39868;53.398;6.564;2023-11-21T03:03:00;13.40;91.70
53962;DHT22;39868;53.398;6.564;2023-11-21T03:05:28;13.40;91.70
53962;DHT22;39868;53.398;6.564;2023-11-21T03:07:56;13.40;91.70
53962;DHT22;39868;53.398;6.564;2023-11-21T03:10:25;13.40;91.70
53962;DHT22;39868;53.398;6.564;2023-11-21T03:12:52;13.40;91.70
53962;DHT22;39868;53.398;6.564;2023-11-21T03:15:19;13.30;91.60
53962;DHT22;39868;53.398;6.564;2023-11-21T03:17:46;13.40;91.70
53962;DHT22;39868;53.398;6.564;2023-11-21T03:20:16;13.40;91.60
53962;DHT22;39868;53.398;6.564;2023-11-21T03:22:43;13.40;91.60
53962;DHT22;39868;53.398;6.564;2023-11-21T03:25:11;13.40;91.60
53962;DHT22;39868;53.398;6.564;2023-11-21T03:27:38;13.40;91.60
53962;DHT22;39868;53.398;6.564;2023-11-21T03:30:07;13.30;91.60
53962;DHT22;39868;53.398;6.564;2023-11-21T03:32:35;13.30;91.60
53962;DHT22;39868;53.398;6.564;2023-11-21T03:35:02;13.30;91.60
53962;DHT22;39868;53.398;6.564;2023-11-21T03:37:30;13.30;91.60
53962;DHT22;39868;53.398;6.564;2023-11-21T03:39:57;13.30;91.60
53962;DHT22;39868;53.398;6.564;2023-11-21T03:42:25;13.30;91.60
53962;DHT22;39868;53.398;6.564;2023-11-21T03:44:55;13.30;91.60
53962;DHT22;39868;53.398;6.564;2023-11-21T03:47:22;13.30;91.60
53962;DHT22;39868;53.398;6.564;2023-11-21T03:49:49;13.30;91.60
53962;DHT22;39868;53.398;6.564;2023-11-21T03:52:16;13.30;91.60
53962;DHT22;39868;53.398;6.564;2023-11-21T03:54:44;13.20;91.50
53962;DHT22;39868;53.398;6.564;2023-11-21T03:57:11;13.20;91.50
53962;DHT22;39868;53.398;6.564;2023-11-21T03:59:42;13.20;91.50
53962;DHT22;39868;53.398;6.564;2023-11-21T04:02:09;13.20;91.50
53962;DHT22;39868;53.398;6.564;2023-11-21T04:04:36;13.20;91.50
53962;DHT22;39868;53.398;6.564;2023-11-21T04:07:04;13.20;91.50
53962;DHT22;39868;53.398;6.564;2023-11-21T04:09:31;13.10;91.50
53962;DHT22;39868;53.398;6.564;2023-11-21T04:11:58;13.10;91.50
53962;DHT22;39868;53.398;6.564;2023-11-21T04:14:26;13.10;91.50
53962;DHT22;39868;53.398;6.564;2023-11-21T04:16:53;13.10;91.50
53962;DHT22;39868;53.398;6.564;2023-11-21T04:19:21;13.10;91.50
53962;DHT22;39868;53.398;6.564;2023-11-21T04:21:48;13.10;91.60
53962;DHT22;39868;53.398;6.564;2023-11-21T04:24:15;13.00;91.50
53962;DHT22;39868;53.398;6.564;2023-11-21T04:26:45;13.00;91.50
53962;DHT22;39868;53.398;6.564;2023-11-21T04:29:12;13.00;91.60
53962;DHT22;39868;53.398;6.564;2023-11-21T04:31:39;13.00;91.50
53962;DHT22;39868;53.398;6.564;2023-11-21T04:34:06;13.00;91.60
53962;DHT22;39868;53.398;6.564;2023-11-21T04:36:35;13.00;91.60
53962;DHT22;39868;53.398;6.564;2023-11-21T04:39:02;13.00;91.60
53962;DHT22;39868;53.398;6.564;2023-11-21T04:41:29;13.00;91.60
53962;DHT22;39868;53.398;6.564;2023-11-21T04:43:58;13.00;91.60
53962;DHT22;39868;53.398;6.564;2023-11-21T04:46:28;13.00;91.80
53962;DHT22;39868;53.398;6.564;2023-11-21T04:48:55;13.00;91.60
53962;DHT22;39868;53.398;6.564;2023-11-21T04:51:22;13.00;91.60
53962;DHT22;39868;53.398;6.564;2023-11-21T04:53:49;13.00;91.60
53962;DHT22;39868;53.398;6.564;2023-11-21T04:56:16;13.00;91.60
53962;DHT22;39868;53.398;6.564;2023-11-21T04:58:44;13.00;91.60
53962;DHT22;39868;53.398;6.564;2023-11-21T05:01:11;13.00;91.60
53962;DHT22;39868;53.398;6.564;2023-11-21T05:03:38;13.00;91.60
53962;DHT22;39868;53.398;6.564;2023-11-21T05:06:06;13.00;91.50
53962;DHT22;39868;53.398;6.564;2023-11-21T05:08:33;12.90;91.50
53962;DHT22;39868;53.398;6.564;2023-11-21T05:11:00;12.90;91.50
53962;DHT22;39868;53.398;6.564;2023-11-21T05:13:27;12.90;91.50
53962;DHT22;39868;53.398;6.564;2023-11-21T05:15:55;12.90;91.50
53962;DHT22;39868;53.398;6.564;2023-11-21T05:18:24;12.90;91.50
53962;DHT22;39868;53.398;6.564;2023-11-21T05:20:54;12.80;91.40
53962;DHT22;39868;53.398;6.564;2023-11-21T05:23:21;12.80;91.40
53962;DHT22;39868;53.398;6.564;2023-11-21T05:25:48;12.80;91.40
53962;DHT22;39868;53.398;6.564;2023-11-21T05:28:15;12.80;91.40
53962;DHT22;39868;53.398;6.564;2023-11-21T05:30:42;12.80;91.40
53962;DHT22;39868;53.398;6.564;2023-11-21T05:33:10;12.80;91.40
53962;DHT22;39868;53.398;6.564;2023-11-21T05:35:37;12.70;91.40
53962;DHT22;39868;53.398;6.564;2023-11-21T05:38:05;12.70;91.40
53962;DHT22;39868;53.398;6.564;2023-11-21T05:40:32;12.70;91.40
53962;DHT22;39868;53.398;6.564;2023-11-21T05:42:59;12.70;91.40
53962;DHT22;39868;53.398;6.564;2023-11-21T05:45:27;12.60;91.40
53962;DHT22;39868;53.398;6.564;2023-11-21T05:47:58;12.60;91.40
53962;DHT22;39868;53.398;6.564;2023-11-21T05:50:25;12.60;91.40
53962;DHT22;39868;53.398;6.564;2023-11-21T05:52:52;12.60;91.40
53962;DHT22;39868;53.398;6.564;2023-11-21T05:55:22;12.60;91.40
53962;DHT22;39868;53.398;6.564;2023-11-21T05:57:52;12.50;91.40
53962;DHT22;39868;53.398;6.564;2023-11-21T06:00:20;12.50;91.40
53962;DHT22;39868;53.398;6.564;2023-11-21T06:02:53;12.50;91.40
53962;DHT22;39868;53.398;6.564;2023-11-21T06:05:22;12.50;91.40
53962;DHT22;39868;53.398;6.564;2023-11-21T06:07:50;12.50;91.40
53962;DHT22;39868;53.398;6.564;2023-11-21T06:10:22;12.40;91.40
53962;DHT22;39868;53.398;6.564;2023-11-21T06:12:52;12.40;91.40
53962;DHT22;39868;53.398;6.564;2023-11-21T06:15:19;12.40;91.40
53962;DHT22;39868;53.398;6.564;2023-11-21T06:17:48;12.40;91.30
53962;DHT22;39868;53.398;6.564;2023-11-21T06:20:20;12.40;91.40
53962;DHT22;39868;53.398;6.564;2023-11-21T06:22:48;12.30;91.30
53962;DHT22;39868;53.398;6.564;2023-11-21T06:25:15;12.30;91.30
53962;DHT22;39868;53.398;6.564;2023-11-21T06:27:47;12.30;91.40
53962;DHT22;39868;53.398;6.564;2023-11-21T06:30:14;12.30;91.30
53962;DHT22;39868;53.398;6.564;2023-11-21T06:32:42;12.30;91.30
53962;DHT22;39868;53.398;6.564;2023-11-21T06:35:19;12.20;91.30
53962;DHT22;39868;53.398;6.564;2023-11-21T06:37:47;12.20;91.50
53962;DHT22;39868;53.398;6.564;2023-11-21T06:40:17;12.20;91.30
53962;DHT22;39868;53.398;6.564;2023-11-21T06:42:48;12.20;91.30
53962;DHT22;39868;53.398;6.564;2023-11-21T06:45:15;12.20;91.30
53962;DHT22;39868;53.398;6.564;2023-11-21T06:47:43;12.20;91.30
53962;DHT22;39868;53.398;6.564;2023-11-21T06:50:11;12.20;91.30
53962;DHT22;39868;53.398;6.564;2023-11-21T06:52:38;12.10;91.30
53962;DHT22;39868;53.398;6.564;2023-11-21T06:55:06;12.10;91.30
53962;DHT22;39868;53.398;6.564;2023-11-21T06:57:36;12.10;91.30
53962;DHT22;39868;53.398;6.564;2023-11-21T07:00:03;12.10;91.30
53962;DHT22;39868;53.398;6.564;2023-11-21T07:02:30;12.10;91.30
53962;DHT22;39868;53.398;6.564;2023-11-21T07:04:58;12.00;91.30
53962;DHT22;39868;53.398;6.564;2023-11-21T07:07:25;12.00;91.30
53962;DHT22;39868;53.398;6.564;2023-11-21T07:09:52;12.00;91.30
53962;DHT22;39868;53.398;6.564;2023-11-21T07:12:19;12.00;91.30
53962;DHT22;39868;53.398;6.564;2023-11-21T07:14:46;12.00;91.30
53962;DHT22;39868;53.398;6.564;2023-11-21T07:17:13;12.00;91.30
53962;DHT22;39868;53.398;6.564;2023-11-21T07:19:44;12.00;91.30
53962;DHT22;39868;53.398;6.564;2023-11-21T07:22:12;12.00;91.30
53962;DHT22;39868;53.398;6.564;2023-11-21T07:24:41;12.00;91.30
53962;DHT22;39868;53.398;6.564;2023-11-21T07:27:08;12.00;91.30
53962;DHT22;39868;53.398;6.564;2023-11-21T07:29:35;12.00;91.30
53962;DHT22;39868;53.398;6.564;2023-11-21T07:32:02;12.00;91.30
53962;DHT22;39868;53.398;6.564;2023-11-21T07:34:29;12.00;91.30
53962;DHT22;39868;53.398;6.564;2023-11-21T07:36:56;12.00;91.30
53962;DHT22;39868;53.398;6.564;2023-11-21T07:39:27;11.90;91.30
53962;DHT22;39868;53.398;6.564;2023-11-21T07:41:56;11.90;91.30
53962;DHT22;39868;53.398;6.564;2023-11-21T07:44:24;11.90;91.30
53962;DHT22;39868;53.398;6.564;2023-11-21T07:46:51;12.00;91.30
53962;DHT22;39868;53.398;6.564;2023-11-21T07:49:19;11.90;91.30
53962;DHT22;39868;53.398;6.564;2023-11-21T07:51:48;11.90;91.30
53962;DHT22;39868;53.398;6.564;2023-11-21T07:54:15;12.00;91.30
53962;DHT22;39868;53.398;6.564;2023-11-21T07:56:43;11.90;91.30
53962;DHT22;39868;53.398;6.564;2023-11-21T07:59:10;12.00;91.30
53962;DHT22;39868;53.398;6.564;2023-11-21T08:01:37;11.90;91.30
53962;DHT22;39868;53.398;6.564;2023-11-21T08:04:05;12.00;91.30
53962;DHT22;39868;53.398;6.564;2023-11-21T08:06:33;12.00;91.30
53962;DHT22;39868;53.398;6.564;2023-11-21T08:09:00;11.90;91.30
53962;DHT22;39868;53.398;6.564;2023-11-21T08:11:28;11.90;91.30
53962;DHT22;39868;53.398;6.564;2023-11-21T08:13:58;12.00;91.30
53962;DHT22;39868;53.398;6.564;2023-11-21T08:16:26;11.90;91.30
53962;DHT22;39868;53.398;6.564;2023-11-21T08:18:54;11.90;91.30
53962;DHT22;39868;53.398;6.564;2023-11-21T08:21:22;12.00;91.30
53962;DHT22;39868;53.398;6.564;2023-11-21T08:23:51;12.00;91.30
53962;DHT22;39868;53.398;6.564;2023-11-21T08:26:23;12.00;91.30
53962;DHT22;39868;53.398;6.564;2023-11-21T08:28:51;12.00;91.30
53962;DHT22;39868;53.398;6.564;2023-11-21T08:31:26;12.00;91.30
53962;DHT22;39868;53.398;6.564;2023-11-21T08:33:53;12.00;91.30
53962;DHT22;39868;53.398;6.564;2023-11-21T08:36:23;12.00;91.30
53962;DHT22;39868;53.398;6.564;2023-11-21T08:38:51;12.00;91.30
53962;DHT22;39868;53.398;6.564;2023-11-21T08:41:19;12.00;91.30
53962;DHT22;39868;53.398;6.564;2023-11-21T08:43:49;12.00;91.30
53962;DHT22;39868;53.398;6.564;2023-11-21T08:46:16;12.00;91.30
53962;DHT22;39868;53.398;6.564;2023-11-21T08:48:44;12.00;91.30
53962;DHT22;39868;53.398;6.564;2023-11-21T08:51:12;11.90;91.20
53962;DHT22;39868;53.398;6.564;2023-11-21T08:53:39;11.90;91.20
53962;DHT22;39868;53.398;6.564;2023-11-21T08:56:06;11.90;91.20
53962;DHT22;39868;53.398;6.564;2023-11-21T08:58:33;12.00;91.20
53962;DHT22;39868;53.398;6.564;2023-11-21T09:01:00;11.90;91.20
53962;DHT22;39868;53.398;6.564;2023-11-21T09:03:28;11.90;91.20
53962;DHT22;39868;53.398;6.564;2023-11-21T09:05:55;11.90;91.20
53962;DHT22;39868;53.398;6.564;2023-11-21T09:08:22;12.00;91.30
53962;DHT22;39868;53.398;6.564;2023-11-21T09:10:49;12.00;91.20
53962;DHT22;39868;53.398;6.564;2023-11-21T09:13:17;12.00;91.30
53962;DHT22;39868;53.398;6.564;2023-11-21T09:15:44;12.00;91.20
53962;DHT22;39868;53.398;6.564;2023-11-21T09:18:13;12.00;91.20
53962;DHT22;39868;53.398;6.564;2023-11-21T09:20:41;12.00;91.20
53962;DHT22;39868;53.398;6.564;2023-11-21T09:23:09;12.00;91.10
53962;DHT22;39868;53.398;6.564;2023-11-21T09:25:37;12.00;91.10
53962;DHT22;39868;53.398;6.564;2023-11-21T09:28:05;12.00;91.10
53962;DHT22;39868;53.398;6.564;2023-11-21T09:30:34;12.00;91.00
53962;DHT22;39868;53.398;6.564;2023-11-21T09:33:03;12.00;91.00
53962;DHT22;39868;53.398;6.564;2023-11-21T09:35:32;12.00;91.00
53962;DHT22;39868;53.398;6.564;2023-11-21T09:37:59;11.90;91.00
53962;DHT22;39868;53.398;6.564;2023-11-21T09:40:28;11.90;90.90
53962;DHT22;39868;53.398;6.564;2023-11-21T09:42:58;11.90;90.90
53962;DHT22;39868;53.398;6.564;2023-11-21T09:47:53;11.90;90.90
53962;DHT22;39868;53.398;6.564;2023-11-21T09:50:22;11.90;90.80
53962;DHT22;39868;53.398;6.564;2023-11-21T09:55:29;11.80;90.80
53962;DHT22;39868;53.398;6.564;2023-11-21T09:57:56;11.90;90.90
53962;DHT22;39868;53.398;6.564;2023-11-21T10:00:24;11.90;90.90
53962;DHT22;39868;53.398;6.564;2023-11-21T10:02:54;11.90;90.90
53962;DHT22;39868;53.398;6.564;2023-11-21T10:05:22;12.00;90.90
53962;DHT22;39868;53.398;6.564;2023-11-21T10:07:54;12.00;90.90
53962;DHT22;39868;53.398;6.564;2023-11-21T10:10:24;12.00;91.00
53962;DHT22;39868;53.398;6.564;2023-11-21T10:12:54;12.10;91.00
53962;DHT22;39868;53.398;6.564;2023-11-21T10:15:22;12.10;91.00
53962;DHT22;39868;53.398;6.564;2023-11-21T10:17:49;12.20;91.10
53962;DHT22;39868;53.398;6.564;2023-11-21T10:20:20;12.20;91.10
53962;DHT22;39868;53.398;6.564;2023-11-21T10:22:48;12.20;91.00
53962;DHT22;39868;53.398;6.564;2023-11-21T10:25:15;12.30;91.00
53962;DHT22;39868;53.398;6.564;2023-11-21T10:27:45;12.30;91.00
53962;DHT22;39868;53.398;6.564;2023-11-21T10:30:13;12.30;91.00
53962;DHT22;39868;53.398;6.564;2023-11-21T10:32:42;12.30;90.90
53962;DHT22;39868;53.398;6.564;2023-11-21T10:35:10;12.30;90.80
53962;DHT22;39868;53.398;6.564;2023-11-21T10:37:38;12.30;90.80
53962;DHT22;39868;53.398;6.564;2023-11-21T10:40:08;12.30;90.70
53962;DHT22;39868;53.398;6.564;2023-11-21T10:42:39;12.30;90.70
53962;DHT22;39868;53.398;6.564;2023-11-21T10:45:08;12.30;90.70
53962;DHT22;39868;53.398;6.564;2023-11-21T10:47:42;12.30;90.70
53962;DHT22;39868;53.398;6.564;2023-11-21T10:50:09;12.30;90.70
53962;DHT22;39868;53.398;6.564;2023-11-21T10:52:41;12.30;90.60
53962;DHT22;39868;53.398;6.564;2023-11-21T10:55:20;12.30;90.70
53962;DHT22;39868;53.398;6.564;2023-11-21T10:57:52;12.30;90.60
53962;DHT22;39868;53.398;6.564;2023-11-21T11:00:20;12.30;90.60
53962;DHT22;39868;53.398;6.564;2023-11-21T11:02:51;12.30;90.60
53962;DHT22;39868;53.398;6.564;2023-11-21T11:05:19;12.30;90.60
53962;DHT22;39868;53.398;6.564;2023-11-21T11:07:59;12.30;90.50
53962;DHT22;39868;53.398;6.564;2023-11-21T11:10:28;12.30;90.50
53962;DHT22;39868;53.398;6.564;2023-11-21T11:12:56;12.30;90.50
53962;DHT22;39868;53.398;6.564;2023-11-21T11:15:25;12.30;90.50
53962;DHT22;39868;53.398;6.564;2023-11-21T11:17:52;12.30;90.50
53962;DHT22;39868;53.398;6.564;2023-11-21T11:20:24;12.30;90.40
53962;DHT22;39868;53.398;6.564;2023-11-21T11:22:58;12.40;90.50
53962;DHT22;39868;53.398;6.564;2023-11-21T11:28:22;12.40;90.30
53962;DHT22;39868;53.398;6.564;2023-11-21T11:36:06;12.50;90.20
53962;DHT22;39868;53.398;6.564;2023-11-21T11:38:36;12.60;90.20
53962;DHT22;39868;53.398;6.564;2023-11-21T11:41:04;12.60;90.20
53962;DHT22;39868;53.398;6.564;2023-11-21T11:43:32;12.60;90.20
53962;DHT22;39868;53.398;6.564;2023-11-21T11:46:02;12.70;90.30
53962;DHT22;39868;53.398;6.564;2023-11-21T11:48:34;12.70;90.20
53962;DHT22;39868;53.398;6.564;2023-11-21T11:51:06;12.70;90.20
53962;DHT22;39868;53.398;6.564;2023-11-21T11:53:36;12.70;90.10
53962;DHT22;39868;53.398;6.564;2023-11-21T11:56:37;12.70;90.00
53962;DHT22;39868;53.398;6.564;2023-11-21T11:58:59;12.70;90.00
53962;DHT22;39868;53.398;6.564;2023-11-21T12:01:30;12.70;90.00
53962;DHT22;39868;53.398;6.564;2023-11-21T12:06:41;12.70;89.90
53962;DHT22;39868;53.398;6.564;2023-11-21T12:09:17;12.70;89.60
53962;DHT22;39868;53.398;6.564;2023-11-21T12:11:45;12.70;89.50
53962;DHT22;39868;53.398;6.564;2023-11-21T12:14:16;12.70;89.40
53962;DHT22;39868;53.398;6.564;2023-11-21T12:16:43;12.60;89.80
53962;DHT22;39868;53.398;6.564;2023-11-21T12:19:13;12.60;88.90
53962;DHT22;39868;53.398;6.564;2023-11-21T12:21:41;12.60;88.80
53962;DHT22;39868;53.398;6.564;2023-11-21T12:24:08;12.50;88.40
53962;DHT22;39868;53.398;6.564;2023-11-21T12:26:35;12.50;88.60
53962;DHT22;39868;53.398;6.564;2023-11-21T12:29:03;12.40;88.60
53962;DHT22;39868;53.398;6.564;2023-11-21T12:31:31;12.40;88.40
53962;DHT22;39868;53.398;6.564;2023-11-21T12:33:58;12.40;88.50
53962;DHT22;39868;53.398;6.564;2023-11-21T12:36:26;12.40;88.70
53962;DHT22;39868;53.398;6.564;2023-11-21T12:38:54;12.40;88.70
53962;DHT22;39868;53.398;6.564;2023-11-21T12:41:21;12.40;88.80
53962;DHT22;39868;53.398;6.564;2023-11-21T12:43:49;12.40;89.10
53962;DHT22;39868;53.398;6.564;2023-11-21T12:46:16;12.40;89.20
53962;DHT22;39868;53.398;6.564;2023-11-21T12:48:44;12.40;89.20
53962;DHT22;39868;53.398;6.564;2023-11-21T12:51:12;12.40;89.20
53962;DHT22;39868;53.398;6.564;2023-11-21T12:53:42;12.40;89.00
53962;DHT22;39868;53.398;6.564;2023-11-21T12:56:10;12.50;89.10
53962;DHT22;39868;53.398;6.564;2023-11-21T12:58:38;12.50;88.70
53962;DHT22;39868;53.398;6.564;2023-11-21T13:01:09;12.40;88.80
53962;DHT22;39868;53.398;6.564;2023-11-21T13:03:39;12.40;88.50
53962;DHT22;39868;53.398;6.564;2023-11-21T13:06:07;12.50;88.40
53962;DHT22;39868;53.398;6.564;2023-11-21T13:08:34;12.40;88.50
53962;DHT22;39868;53.398;6.564;2023-11-21T13:11:05;12.50;88.40
53962;DHT22;39868;53.398;6.564;2023-11-21T13:13:33;12.50;88.20
53962;DHT22;39868;53.398;6.564;2023-11-21T13:16:01;12.50;88.10
53962;DHT22;39868;53.398;6.564;2023-11-21T13:18:28;12.50;88.20
53962;DHT22;39868;53.398;6.564;2023-11-21T13:20:58;12.50;88.20
53962;DHT22;39868;53.398;6.564;2023-11-21T13:23:26;12.50;87.80
53962;DHT22;39868;53.398;6.564;2023-11-21T13:25:53;12.40;88.00
53962;DHT22;39868;53.398;6.564;2023-11-21T13:28:31;12.40;88.00
53962;DHT22;39868;53.398;6.564;2023-11-21T13:31:02;12.30;88.00
53962;DHT22;39868;53.398;6.564;2023-11-21T13:33:38;12.30;88.00
53962;DHT22;39868;53.398;6.564;2023-11-21T13:36:06;12.30;88.10
53962;DHT22;39868;53.398;6.564;2023-11-21T13:38:37;12.30;88.10
53962;DHT22;39868;53.398;6.564;2023-11-21T13:41:09;12.30;88.20
53962;DHT22;39868;53.398;6.564;2023-11-21T13:43:39;12.20;88.10
53962;DHT22;39868;53.398;6.564;2023-11-21T13:46:06;12.20;88.20
53962;DHT22;39868;53.398;6.564;2023-11-21T13:48:42;12.20;88.20
53962;DHT22;39868;53.398;6.564;2023-11-21T13:51:14;12.20;88.00
53962;DHT22;39868;53.398;6.564;2023-11-21T13:53:44;12.20;87.80
53962;DHT22;39868;53.398;6.564;2023-11-21T13:56:15;12.20;87.50
53962;DHT22;39868;53.398;6.564;2023-11-21T13:58:46;12.10;87.40
53962;DHT22;39868;53.398;6.564;2023-11-21T14:01:18;12.10;87.40
53962;DHT22;39868;53.398;6.564;2023-11-21T14:04:02;12.00;87.50
53962;DHT22;39868;53.398;6.564;2023-11-21T14:06:46;12.00;87.60
53962;DHT22;39868;53.398;6.564;2023-11-21T14:09:18;11.90;87.60
53962;DHT22;39868;53.398;6.564;2023-11-21T14:11:53;11.90;87.60
53962;DHT22;39868;53.398;6.564;2023-11-21T14:14:21;11.90;87.50
53962;DHT22;39868;53.398;6.564;2023-11-21T14:16:48;11.80;87.50
53962;DHT22;39868;53.398;6.564;2023-11-21T14:19:17;11.80;87.50
53962;DHT22;39868;53.398;6.564;2023-11-21T14:21:44;11.80;87.60
53962;DHT22;39868;53.398;6.564;2023-11-21T14:24:12;11.80;87.60
53962;DHT22;39868;53.398;6.564;2023-11-21T14:26:45;11.70;87.60
53962;DHT22;39868;53.398;6.564;2023-11-21T14:29:14;11.70;87.30
53962;DHT22;39868;53.398;6.564;2023-11-21T14:31:44;11.70;87.30
53962;DHT22;39868;53.398;6.564;2023-11-21T14:34:11;11.70;87.30
53962;DHT22;39868;53.398;6.564;2023-11-21T14:36:39;11.60;87.30
53962;DHT22;39868;53.398;6.564;2023-11-21T14:39:06;11.60;87.30
53962;DHT22;39868;53.398;6.564;2023-11-21T14:41:37;11.60;87.40
53962;DHT22;39868;53.398;6.564;2023-11-21T14:44:06;11.50;87.50
53962;DHT22;39868;53.398;6.564;2023-11-21T14:46:38;11.60;87.70
53962;DHT22;39868;53.398;6.564;2023-11-21T14:49:06;11.50;87.80
53962;DHT22;39868;53.398;6.564;2023-11-21T14:51:55;11.50;87.80
53962;DHT22;39868;53.398;6.564;2023-11-21T14:54:30;11.50;87.80
53962;DHT22;39868;53.398;6.564;2023-11-21T14:57:13;11.50;87.90
53962;DHT22;39868;53.398;6.564;2023-11-21T14:59:48;11.50;87.90
53962;DHT22;39868;53.398;6.564;2023-11-21T15:02:18;11.40;87.90
53962;DHT22;39868;53.398;6.564;2023-11-21T15:04:49;11.40;87.90
53962;DHT22;39868;53.398;6.564;2023-11-21T15:07:20;11.40;88.00
53962;DHT22;39868;53.398;6.564;2023-11-21T15:09:47;11.40;88.00
53962;DHT22;39868;53.398;6.564;2023-11-21T15:12:16;11.40;88.00
53962;DHT22;39868;53.398;6.564;2023-11-21T15:14:44;11.40;88.00
53962;DHT22;39868;53.398;6.564;2023-11-21T15:17:13;11.30;88.00
53962;DHT22;39868;53.398;6.564;2023-11-21T15:19:51;11.30;88.00
53962;DHT22;39868;53.398;6.564;2023-11-21T15:22:19;11.30;88.00
53962;DHT22;39868;53.398;6.564;2023-11-21T15:24:47;11.30;88.10
53962;DHT22;39868;53.398;6.564;2023-11-21T15:27:16;11.30;88.00
53962;DHT22;39868;53.398;6.564;2023-11-21T15:29:44;11.30;88.10
53962;DHT22;39868;53.398;6.564;2023-11-21T15:32:11;11.20;87.90
53962;DHT22;39868;53.398;6.564;2023-11-21T15:34:39;11.20;88.00
53962;DHT22;39868;53.398;6.564;2023-11-21T15:37:06;11.20;87.90
53962;DHT22;39868;53.398;6.564;2023-11-21T15:39:38;11.10;87.80
53962;DHT22;39868;53.398;6.564;2023-11-21T15:42:05;11.10;87.90
53962;DHT22;39868;53.398;6.564;2023-11-21T15:44:34;11.00;87.80
53962;DHT22;39868;53.398;6.564;2023-11-21T15:47:01;11.00;87.80
53962;DHT22;39868;53.398;6.564;2023-11-21T15:49:31;10.90;87.70
53962;DHT22;39868;53.398;6.564;2023-11-21T15:52:04;10.90;87.80
53962;DHT22;39868;53.398;6.564;2023-11-21T15:54:33;10.90;87.80